Gujranwala, Pakistan
Current Conditions -  °F | °C
As of 5:30 AM on Tuesday 25 Nov 2014 (Local Time) from OPLA Reporting Station
Haze Haze  
Wind Chill: 48°   Ceiling: Unl
Heat Index: 48°   Visibility: 0.93mi
Dew Point: 45°   Wind: 0mph
Humidity: 87%   Direction: NA
Pressure: 30"   Gusts: NA
Location:  32.16°N, 74.18°E
Report Text: OPLA 250030Z 00000KT 1500 BR NSC 09/07 Q1016 A30.00
Loading
Personal Weather Stations






























Interactive Weather Map New forecast layout! Learn more

10-Day Weather Forecast

Advertisements
Track Severe Weather on mobile